createdAt,value
2023-06-15T00:01:20.589Z,11.06
2023-06-15T00:03:47.373Z,11.07
2023-06-15T00:06:14.179Z,11.05
2023-06-15T00:08:41.645Z,11.03
2023-06-15T00:11:08.433Z,11.03
2023-06-15T00:13:35.176Z,11.01
2023-06-15T00:16:01.875Z,11.01
2023-06-15T00:18:28.493Z,11.00
2023-06-15T00:20:56.990Z,10.99
2023-06-15T00:23:28.102Z,10.96
2023-06-15T00:25:56.835Z,10.95
2023-06-15T00:28:23.584Z,10.93
2023-06-15T00:30:50.288Z,10.92
2023-06-15T00:33:17.061Z,10.92
2023-06-15T00:35:43.913Z,10.92
2023-06-15T00:38:11.062Z,10.91
2023-06-15T00:40:40.930Z,10.90
2023-06-15T00:43:07.937Z,10.91
2023-06-15T00:45:35.723Z,10.88
2023-06-15T00:48:02.614Z,10.85
2023-06-15T00:50:31.920Z,10.83
2023-06-15T00:53:04.862Z,10.81
2023-06-15T00:55:35.528Z,10.79
2023-06-15T00:58:03.287Z,10.77
2023-06-15T01:00:33.216Z,10.75
2023-06-15T01:03:01.429Z,10.74
2023-06-15T01:05:28.171Z,10.71
2023-06-15T01:07:56.474Z,10.72
2023-06-15T01:10:25.658Z,10.70
2023-06-15T01:12:55.950Z,10.71
2023-06-15T01:15:23.557Z,10.71
2023-06-15T01:17:54.935Z,10.70
2023-06-15T01:20:27.129Z,10.70
2023-06-15T01:23:20.379Z,10.71
2023-06-15T01:25:54.846Z,10.71
2023-06-15T01:28:22.174Z,10.70
2023-06-15T01:30:52.241Z,10.68
2023-06-15T01:33:19.248Z,10.66
2023-06-15T01:35:46.118Z,10.66
2023-06-15T01:38:14.245Z,10.66
2023-06-15T01:40:45.147Z,10.65
2023-06-15T01:43:14.461Z,10.66
2023-06-15T01:45:43.397Z,10.65
2023-06-15T01:48:11.277Z,10.64
2023-06-15T01:50:39.289Z,10.62
2023-06-15T01:53:06.032Z,10.62
2023-06-15T01:55:32.815Z,10.63
2023-06-15T01:57:59.504Z,10.61
2023-06-15T02:00:26.960Z,10.63
2023-06-15T02:02:53.735Z,10.61
2023-06-15T02:05:20.694Z,10.63
2023-06-15T02:07:47.597Z,10.62
2023-06-15T02:10:14.296Z,10.60
2023-06-15T02:12:40.934Z,10.57
2023-06-15T02:15:08.225Z,10.57
2023-06-15T02:17:39.883Z,10.56
2023-06-15T02:20:11.284Z,10.53
2023-06-15T02:22:38.011Z,10.49
2023-06-15T02:25:06.134Z,10.49
2023-06-15T02:27:32.815Z,10.50
2023-06-15T02:29:59.422Z,10.48
2023-06-15T02:32:32.899Z,10.49
2023-06-15T02:34:59.870Z,10.48
2023-06-15T02:37:26.459Z,10.49
2023-06-15T02:39:53.065Z,10.43
2023-06-15T02:42:19.686Z,10.42
2023-06-15T02:44:46.585Z,10.40
2023-06-15T02:47:13.252Z,10.40
2023-06-15T02:49:39.900Z,10.38
2023-06-15T02:52:06.846Z,10.38
2023-06-15T02:54:35.466Z,10.38
2023-06-15T02:57:02.368Z,10.35
2023-06-15T02:59:29.755Z,10.33
2023-06-15T03:01:56.384Z,10.31
2023-06-15T03:04:25.521Z,10.32
2023-06-15T03:06:52.105Z,10.29
2023-06-15T03:09:18.775Z,10.29
2023-06-15T03:11:45.801Z,10.27
2023-06-15T03:14:12.433Z,10.26
2023-06-15T03:16:47.832Z,10.24
2023-06-15T03:19:18.107Z,10.26
2023-06-15T03:21:48.348Z,10.25
2023-06-15T03:24:17.531Z,10.25
2023-06-15T03:26:48.648Z,10.24
2023-06-15T03:29:15.798Z,10.25
2023-06-15T03:31:42.491Z,10.26
2023-06-15T03:34:09.953Z,10.29
2023-06-15T03:36:36.949Z,10.31
2023-06-15T03:39:04.606Z,10.33
2023-06-15T03:41:31.578Z,10.34
2023-06-15T03:43:58.325Z,10.37
2023-06-15T03:46:24.928Z,10.37
2023-06-15T03:48:51.586Z,10.38
2023-06-15T03:51:18.452Z,10.39
2023-06-15T03:53:45.755Z,10.45
2023-06-15T03:56:12.378Z,10.46
2023-06-15T03:58:39.224Z,10.49
2023-06-15T04:01:06.201Z,10.50
2023-06-15T04:03:36.555Z,10.57
2023-06-15T04:06:05.362Z,10.60
2023-06-15T04:08:32.873Z,10.68
2023-06-15T04:11:00.171Z,10.74
2023-06-15T04:13:26.946Z,10.78
2023-06-15T04:15:54.588Z,10.83
2023-06-15T04:18:22.140Z,10.90
2023-06-15T04:20:48.780Z,10.97
2023-06-15T04:23:15.558Z,11.00
2023-06-15T04:25:42.325Z,11.05
2023-06-15T04:28:12.537Z,11.12
2023-06-15T04:30:46.010Z,11.17
2023-06-15T04:33:18.437Z,11.25
2023-06-15T04:35:47.930Z,11.29
2023-06-15T04:38:15.268Z,11.34
2023-06-15T04:40:47.434Z,11.33
2023-06-15T04:43:14.418Z,11.40
2023-06-15T04:45:41.020Z,11.46
2023-06-15T04:48:07.990Z,11.53
2023-06-15T04:50:36.507Z,11.58
2023-06-15T04:53:03.085Z,11.62
2023-06-15T04:55:29.790Z,11.65
2023-06-15T04:57:56.483Z,11.71
2023-06-15T05:00:23.455Z,11.76
2023-06-15T05:02:50.411Z,11.76
2023-06-15T05:05:17.587Z,11.79
2023-06-15T05:07:44.398Z,11.82
2023-06-15T05:10:11.006Z,11.85
2023-06-15T05:12:37.588Z,11.85
2023-06-15T05:15:04.806Z,11.89
2023-06-15T05:17:31.432Z,11.91
2023-06-15T05:19:58.085Z,11.78
2023-06-15T05:22:24.695Z,11.67
2023-06-15T05:24:51.306Z,11.63
2023-06-15T05:27:17.913Z,11.67
2023-06-15T05:29:45.256Z,11.74
2023-06-15T05:32:12.093Z,11.75
2023-06-15T05:34:38.729Z,11.79
2023-06-15T05:37:05.768Z,11.90
2023-06-15T05:39:32.493Z,11.96
2023-06-15T05:41:59.085Z,11.99
2023-06-15T05:44:25.705Z,11.97
2023-06-15T05:46:54.138Z,12.05
2023-06-15T05:49:20.920Z,12.06
2023-06-15T05:51:47.585Z,12.01
2023-06-15T05:54:14.219Z,11.96
2023-06-15T05:56:41.005Z,12.11
2023-06-15T05:59:16.284Z,12.16
2023-06-15T06:01:54.560Z,12.18
2023-06-15T06:04:21.329Z,12.25
2023-06-15T06:06:50.153Z,12.32
2023-06-15T06:09:17.000Z,12.35
2023-06-15T06:11:43.639Z,12.40
2023-06-15T06:14:10.245Z,12.46
2023-06-15T06:16:36.861Z,12.50
2023-06-15T06:19:03.491Z,12.56
2023-06-15T06:21:32.590Z,12.60
2023-06-15T06:24:00.050Z,12.72
2023-06-15T06:26:27.048Z,12.76
2023-06-15T06:28:53.931Z,12.78
2023-06-15T06:31:20.524Z,12.78
2023-06-15T06:33:47.165Z,12.87
2023-06-15T06:36:13.801Z,12.87
2023-06-15T06:38:49.568Z,12.94
2023-06-15T06:41:28.229Z,13.09
2023-06-15T06:43:54.952Z,13.09
2023-06-15T06:46:23.458Z,13.18
2023-06-15T06:48:51.247Z,13.03
2023-06-15T06:51:18.317Z,13.02
2023-06-15T06:53:45.256Z,13.24
2023-06-15T06:56:11.879Z,13.31
2023-06-15T06:58:38.571Z,13.41
2023-06-15T07:01:05.197Z,13.56
2023-06-15T07:03:32.091Z,13.68
2023-06-15T07:05:59.961Z,13.84
2023-06-15T07:08:26.993Z,13.97
2023-06-15T07:10:53.708Z,14.14
2023-06-15T07:13:20.306Z,14.35
2023-06-15T07:15:46.901Z,14.59
2023-06-15T07:18:15.821Z,14.91
2023-06-15T07:20:43.135Z,15.26
2023-06-15T07:23:09.847Z,15.47
2023-06-15T07:25:36.576Z,15.68
2023-06-15T07:28:04.341Z,15.61
2023-06-15T07:30:31.141Z,15.63
2023-06-15T07:32:57.945Z,15.61
2023-06-15T07:35:24.747Z,15.48
2023-06-15T07:37:51.418Z,15.56
2023-06-15T07:40:18.236Z,15.61
2023-06-15T07:42:45.865Z,15.59
2023-06-15T07:45:12.612Z,15.58
2023-06-15T07:47:39.354Z,15.63
2023-06-15T07:50:06.397Z,15.69
2023-06-15T07:52:33.071Z,15.86
2023-06-15T07:54:59.725Z,16.33
2023-06-15T07:57:27.648Z,16.83
2023-06-15T07:59:54.468Z,16.96
2023-06-15T08:02:21.249Z,17.02
2023-06-15T08:04:47.942Z,17.06
2023-06-15T08:07:14.711Z,17.09
2023-06-15T08:09:41.362Z,17.13
2023-06-15T08:12:08.871Z,17.16
2023-06-15T08:14:37.443Z,17.30
2023-06-15T08:17:04.395Z,17.38
2023-06-15T08:19:31.209Z,17.46
2023-06-15T08:21:57.904Z,17.46
2023-06-15T08:24:26.900Z,17.54
2023-06-15T08:26:55.355Z,17.55
2023-06-15T08:29:24.393Z,17.72
2023-06-15T08:31:52.228Z,17.89
2023-06-15T08:34:19.496Z,17.80
2023-06-15T08:36:47.633Z,18.04
2023-06-15T08:39:14.372Z,18.49
2023-06-15T08:41:41.118Z,18.91
2023-06-15T08:44:08.950Z,19.01
2023-06-15T08:46:35.937Z,18.61
2023-06-15T08:49:03.963Z,18.50
2023-06-15T08:51:31.117Z,18.16
2023-06-15T08:53:58.565Z,18.04
2023-06-15T08:56:27.827Z,18.17
2023-06-15T08:58:54.665Z,18.04
2023-06-15T09:01:23.580Z,18.02
2023-06-15T09:03:55.276Z,18.14
2023-06-15T09:06:23.234Z,18.42
2023-06-15T09:08:52.220Z,18.57
2023-06-15T09:11:19.142Z,18.61
2023-06-15T09:13:46.604Z,18.89
2023-06-15T09:16:13.975Z,19.07
2023-06-15T09:18:47.253Z,19.16
2023-06-15T09:21:16.036Z,19.59
2023-06-15T09:23:44.395Z,19.78
2023-06-15T09:26:21.366Z,19.86
2023-06-15T09:28:48.358Z,19.95
2023-06-15T09:31:32.638Z,20.02
2023-06-15T09:34:03.755Z,20.07
2023-06-15T09:36:35.883Z,20.33
2023-06-15T09:39:04.920Z,20.16
2023-06-15T09:41:33.360Z,20.41
2023-06-15T09:44:03.559Z,20.30
2023-06-15T09:46:31.452Z,20.22
2023-06-15T09:48:58.518Z,20.16
2023-06-15T09:51:31.816Z,19.79
2023-06-15T09:54:00.148Z,19.59
2023-06-15T09:56:31.454Z,19.42
2023-06-15T09:59:03.764Z,19.42
2023-06-15T10:01:35.191Z,19.39
2023-06-15T10:04:04.775Z,19.51
2023-06-15T10:06:34.578Z,19.60
2023-06-15T10:09:03.309Z,19.47
2023-06-15T10:11:31.081Z,19.50
2023-06-15T10:14:07.203Z,19.56
2023-06-15T10:16:34.843Z,19.72
2023-06-15T10:19:06.502Z,19.98
2023-06-15T10:21:39.518Z,19.95
2023-06-15T10:24:15.297Z,20.04
2023-06-15T10:26:42.875Z,20.10
2023-06-15T10:29:52.840Z,20.34
2023-06-15T10:32:30.112Z,20.54
2023-06-15T10:35:13.437Z,20.64
2023-06-15T10:37:52.484Z,20.66
2023-06-15T10:40:30.794Z,20.74
2023-06-15T10:43:01.171Z,20.96
2023-06-15T10:45:33.602Z,20.59
2023-06-15T10:48:03.053Z,20.81
2023-06-15T10:50:54.578Z,21.08
2023-06-15T10:53:23.347Z,21.01
2023-06-15T10:55:54.310Z,21.14
2023-06-15T10:58:21.157Z,21.20
2023-06-15T11:01:06.094Z,21.24
2023-06-15T11:03:33.617Z,21.06
2023-06-15T11:06:11.380Z,21.05
2023-06-15T11:08:49.128Z,21.41
2023-06-15T11:11:18.827Z,21.79
2023-06-15T11:13:56.440Z,22.13
2023-06-15T11:16:28.544Z,22.46
2023-06-15T11:19:19.964Z,22.60
2023-06-15T11:22:07.026Z,22.45
2023-06-15T11:24:43.306Z,22.21
2023-06-15T11:27:11.064Z,22.40
2023-06-15T11:29:44.064Z,22.55
2023-06-15T11:32:11.621Z,22.76
2023-06-15T11:34:40.019Z,22.94
2023-06-15T11:37:13.343Z,22.69
2023-06-15T11:39:43.914Z,22.69
2023-06-15T11:42:10.799Z,22.87
2023-06-15T11:44:40.740Z,23.02
2023-06-15T11:47:11.189Z,23.05
2023-06-15T11:49:37.945Z,23.41
2023-06-15T11:52:06.312Z,23.32
2023-06-15T11:54:50.528Z,22.53
2023-06-15T11:57:18.975Z,22.16
2023-06-15T11:59:45.736Z,21.99
2023-06-15T12:02:14.196Z,21.75
2023-06-15T12:04:40.939Z,21.69
2023-06-15T12:07:13.945Z,21.72
2023-06-15T12:09:45.293Z,21.64
2023-06-15T12:12:32.144Z,21.60
2023-06-15T12:15:06.836Z,21.67
2023-06-15T12:17:35.389Z,21.64
2023-06-15T12:20:15.593Z,21.55
2023-06-15T12:22:49.290Z,21.43
2023-06-15T12:25:16.485Z,21.22
2023-06-15T12:27:49.079Z,20.98
2023-06-15T12:30:18.278Z,20.75
2023-06-15T12:32:50.264Z,20.63
2023-06-15T12:35:43.862Z,20.57
2023-06-15T12:38:11.431Z,20.50
2023-06-15T12:40:41.967Z,20.50
2023-06-15T12:43:08.821Z,20.52
2023-06-15T12:45:35.760Z,20.57
2023-06-15T12:48:03.551Z,20.57
2023-06-15T12:50:30.983Z,20.59
2023-06-15T12:52:58.459Z,20.59
2023-06-15T12:55:27.049Z,20.63
2023-06-15T12:57:57.248Z,20.68
2023-06-15T13:00:26.565Z,20.75
2023-06-15T13:02:58.578Z,20.81
2023-06-15T13:05:25.821Z,20.93
2023-06-15T13:07:52.690Z,21.05
2023-06-15T13:10:20.019Z,21.15
2023-06-15T13:12:48.064Z,21.27
2023-06-15T13:15:14.851Z,21.34
2023-06-15T13:17:41.775Z,21.34
2023-06-15T13:20:10.009Z,21.30
2023-06-15T13:22:36.747Z,21.28
2023-06-15T13:25:10.483Z,21.32
2023-06-15T13:27:39.707Z,21.40
2023-06-15T13:30:08.776Z,21.35
2023-06-15T13:32:37.087Z,21.39
2023-06-15T13:35:05.362Z,21.42
2023-06-15T13:37:34.878Z,21.44
2023-06-15T13:40:07.261Z,21.43
2023-06-15T13:42:39.040Z,21.41
2023-06-15T13:45:22.674Z,21.43
2023-06-15T13:47:49.948Z,21.37
2023-06-15T13:50:18.827Z,21.22
2023-06-15T13:52:49.737Z,21.13
2023-06-15T13:55:18.881Z,21.03
2023-06-15T13:57:46.635Z,21.02
2023-06-15T14:00:14.128Z,20.98
2023-06-15T14:02:46.056Z,20.92
2023-06-15T14:05:14.877Z,20.82
2023-06-15T14:07:42.303Z,20.65
2023-06-15T14:10:09.632Z,20.51
2023-06-15T14:12:36.638Z,20.47
2023-06-15T14:15:04.115Z,20.39
2023-06-15T14:17:30.848Z,20.44
2023-06-15T14:19:58.238Z,20.52
2023-06-15T14:22:24.944Z,20.40
2023-06-15T14:24:51.569Z,20.38
2023-06-15T14:27:18.205Z,20.43
2023-06-15T14:29:47.046Z,20.41
2023-06-15T14:32:16.457Z,20.33
2023-06-15T14:34:44.858Z,20.31
2023-06-15T14:37:12.135Z,20.26
2023-06-15T14:39:38.831Z,20.15
2023-06-15T14:42:05.677Z,20.14
2023-06-15T14:44:32.350Z,20.05
2023-06-15T14:46:58.988Z,19.99
2023-06-15T14:49:25.720Z,19.96
2023-06-15T14:51:52.333Z,19.93
2023-06-15T14:54:19.032Z,19.93
2023-06-15T14:56:45.721Z,19.99
2023-06-15T14:59:12.409Z,20.06
2023-06-15T15:01:39.831Z,20.15
2023-06-15T15:04:06.655Z,20.19
2023-06-15T15:06:33.413Z,20.33
2023-06-15T15:09:00.160Z,20.38
2023-06-15T15:11:27.263Z,20.36
2023-06-15T15:13:54.014Z,20.32
2023-06-15T15:16:21.484Z,20.39
2023-06-15T15:18:48.232Z,20.28
2023-06-15T15:21:15.080Z,20.17
2023-06-15T15:23:42.356Z,20.08
2023-06-15T15:26:09.059Z,20.05
2023-06-15T15:28:35.824Z,19.98
2023-06-15T15:31:02.676Z,19.78
2023-06-15T15:33:30.645Z,19.58
2023-06-15T15:35:57.257Z,19.44
2023-06-15T15:38:23.893Z,19.39
2023-06-15T15:40:50.573Z,19.35
2023-06-15T15:43:18.210Z,19.37
2023-06-15T15:45:44.974Z,19.25
2023-06-15T15:48:12.081Z,19.23
2023-06-15T15:50:39.223Z,19.21
2023-06-15T15:53:06.138Z,19.19
2023-06-15T15:55:33.044Z,19.17
2023-06-15T15:58:00.295Z,19.15
2023-06-15T16:00:27.686Z,19.12
2023-06-15T16:02:54.527Z,19.07
2023-06-15T16:05:21.429Z,19.02
2023-06-15T16:07:48.297Z,18.94
2023-06-15T16:10:16.022Z,18.90
2023-06-15T16:12:42.952Z,18.79
2023-06-15T16:15:11.722Z,18.65
2023-06-15T16:17:38.854Z,18.60
2023-06-15T16:20:05.978Z,18.60
2023-06-15T16:22:34.091Z,18.60
2023-06-15T16:25:02.255Z,18.54
2023-06-15T16:27:29.903Z,18.45
2023-06-15T16:29:56.805Z,18.35
2023-06-15T16:32:24.420Z,18.32
2023-06-15T16:34:51.143Z,18.29
2023-06-15T16:37:17.844Z,18.28
2023-06-15T16:39:56.540Z,18.29
2023-06-15T16:42:25.124Z,18.29
2023-06-15T16:44:52.096Z,18.29
2023-06-15T16:47:18.944Z,18.29
2023-06-15T16:49:49.039Z,18.33
2023-06-15T16:52:17.138Z,18.38
2023-06-15T16:54:44.764Z,18.39
2023-06-15T16:57:13.311Z,18.39
2023-06-15T16:59:41.517Z,18.40
2023-06-15T17:02:11.178Z,18.41
2023-06-15T17:04:38.241Z,18.42
2023-06-15T17:07:05.447Z,18.38
2023-06-15T17:09:33.365Z,18.34
2023-06-15T17:12:00.395Z,18.25
2023-06-15T17:14:27.404Z,18.22
2023-06-15T17:16:54.876Z,18.23
2023-06-15T17:19:21.769Z,18.23
2023-06-15T17:21:48.625Z,18.24
2023-06-15T17:24:15.417Z,18.27
2023-06-15T17:26:43.091Z,18.23
2023-06-15T17:29:11.122Z,18.22
2023-06-15T17:31:38.414Z,18.24
2023-06-15T17:34:05.501Z,18.24
2023-06-15T17:36:32.207Z,18.24
2023-06-15T17:38:59.186Z,18.22
2023-06-15T17:41:25.781Z,18.20
2023-06-15T17:43:52.452Z,18.15
2023-06-15T17:46:19.156Z,18.09
2023-06-15T17:48:46.069Z,18.05
2023-06-15T17:51:12.681Z,18.00
2023-06-15T17:53:44.062Z,17.95
2023-06-15T17:56:15.049Z,17.90
2023-06-15T17:58:42.058Z,17.84
2023-06-15T18:01:11.964Z,17.77
2023-06-15T18:03:41.030Z,17.63
2023-06-15T18:06:08.995Z,17.57
2023-06-15T18:08:36.075Z,17.52
2023-06-15T18:11:02.728Z,17.39
2023-06-15T18:13:29.390Z,17.31
2023-06-15T18:15:56.068Z,17.26
2023-06-15T18:18:23.885Z,17.19
2023-06-15T18:20:51.304Z,17.14
2023-06-15T18:23:18.082Z,17.06
2023-06-15T18:25:45.169Z,16.96
2023-06-15T18:28:11.856Z,16.87
2023-06-15T18:30:38.491Z,16.77
2023-06-15T18:33:05.264Z,16.63
2023-06-15T18:35:31.949Z,16.50
2023-06-15T18:37:59.837Z,16.37
2023-06-15T18:40:27.314Z,16.24
2023-06-15T18:42:54.020Z,16.14
2023-06-15T18:45:21.718Z,16.03
2023-06-15T18:47:48.868Z,15.95
2023-06-15T18:50:15.900Z,15.84
2023-06-15T18:52:42.589Z,15.76
2023-06-15T18:55:09.872Z,15.62
2023-06-15T18:57:36.805Z,15.58
2023-06-15T19:00:04.392Z,15.51
2023-06-15T19:02:31.233Z,15.41
2023-06-15T19:04:57.959Z,15.35
2023-06-15T19:07:24.620Z,15.28
2023-06-15T19:09:51.359Z,15.26
2023-06-15T19:12:18.476Z,15.18
2023-06-15T19:14:45.202Z,15.11
2023-06-15T19:17:12.244Z,15.07
2023-06-15T19:19:40.074Z,15.02
2023-06-15T19:22:07.550Z,14.96
2023-06-15T19:24:35.229Z,14.89
2023-06-15T19:27:02.188Z,14.82
2023-06-15T19:29:28.846Z,14.75
2023-06-15T19:31:55.588Z,14.68
2023-06-15T19:34:22.525Z,14.62
2023-06-15T19:36:56.012Z,14.57
2023-06-15T19:39:23.274Z,14.52
2023-06-15T19:41:51.786Z,14.51
2023-06-15T19:44:19.149Z,14.49
2023-06-15T19:46:46.422Z,14.45
2023-06-15T19:49:13.091Z,14.40
2023-06-15T19:51:39.686Z,14.37
2023-06-15T19:54:06.383Z,14.32
2023-06-15T19:56:33.009Z,14.24
2023-06-15T19:59:02.868Z,14.16
2023-06-15T20:01:30.201Z,14.10
2023-06-15T20:03:58.373Z,14.09
2023-06-15T20:06:26.018Z,14.08
2023-06-15T20:08:53.019Z,14.05
2023-06-15T20:11:19.692Z,14.01
2023-06-15T20:13:46.867Z,13.92
2023-06-15T20:16:14.754Z,13.85
2023-06-15T20:18:46.770Z,13.80
2023-06-15T20:21:14.178Z,13.78
2023-06-15T20:23:41.517Z,13.71
2023-06-15T20:26:08.274Z,13.67
2023-06-15T20:28:34.934Z,13.60
2023-06-15T20:31:02.984Z,13.53
2023-06-15T20:33:31.688Z,13.46
2023-06-15T20:35:59.279Z,13.40
2023-06-15T20:38:26.558Z,13.35
2023-06-15T20:40:53.503Z,13.32
2023-06-15T20:43:21.007Z,13.33
2023-06-15T20:45:47.715Z,13.28
2023-06-15T20:48:14.388Z,13.23
2023-06-15T20:50:41.200Z,13.20
2023-06-15T20:53:08.143Z,13.17
2023-06-15T20:55:34.819Z,13.10
2023-06-15T20:58:02.523Z,13.06
2023-06-15T21:00:29.436Z,13.03
2023-06-15T21:03:00.643Z,13.00
2023-06-15T21:05:27.739Z,12.99
2023-06-15T21:07:56.538Z,12.95
2023-06-15T21:10:24.763Z,12.89
2023-06-15T21:12:51.636Z,12.86
2023-06-15T21:15:18.475Z,12.82
2023-06-15T21:17:45.492Z,12.77
2023-06-15T21:20:14.015Z,12.76
2023-06-15T21:22:41.664Z,12.75
2023-06-15T21:25:08.931Z,12.72
2023-06-15T21:27:35.720Z,12.68
2023-06-15T21:30:02.720Z,12.64
2023-06-15T21:32:29.472Z,12.62
2023-06-15T21:34:56.149Z,12.59
2023-06-15T21:37:22.823Z,12.55
2023-06-15T21:39:49.966Z,12.54
2023-06-15T21:42:17.333Z,12.53
2023-06-15T21:44:46.628Z,12.51
2023-06-15T21:47:13.262Z,12.48
2023-06-15T21:49:40.032Z,12.40
2023-06-15T21:52:07.053Z,12.38
2023-06-15T21:54:34.508Z,12.34
2023-06-15T21:57:01.652Z,12.31
2023-06-15T21:59:28.272Z,12.26
2023-06-15T22:01:55.012Z,12.23
2023-06-15T22:04:21.674Z,12.18
2023-06-15T22:06:48.306Z,12.15
2023-06-15T22:09:16.811Z,12.16
2023-06-15T22:11:44.058Z,12.16
2023-06-15T22:14:11.177Z,12.12
2023-06-15T22:16:41.110Z,12.09
2023-06-15T22:19:08.856Z,12.08
2023-06-15T22:21:36.499Z,12.10
2023-06-15T22:24:03.684Z,12.08
2023-06-15T22:26:30.507Z,12.07
2023-06-15T22:28:57.201Z,12.05
2023-06-15T22:31:23.953Z,12.03
2023-06-15T22:33:50.597Z,12.00
2023-06-15T22:36:17.340Z,11.98
2023-06-15T22:38:43.929Z,11.93
2023-06-15T22:41:10.563Z,11.91
2023-06-15T22:43:37.190Z,11.88
2023-06-15T22:46:04.206Z,11.83
2023-06-15T22:48:32.195Z,11.78
2023-06-15T22:50:58.844Z,11.77
2023-06-15T22:53:26.556Z,11.77
2023-06-15T22:55:53.826Z,11.73
2023-06-15T22:58:21.208Z,11.71
2023-06-15T23:00:47.898Z,11.73
2023-06-15T23:03:15.567Z,11.71
2023-06-15T23:05:45.251Z,11.69
2023-06-15T23:08:21.917Z,11.68
2023-06-15T23:10:51.797Z,11.65
2023-06-15T23:13:22.172Z,11.58
2023-06-15T23:15:54.016Z,11.55
2023-06-15T23:18:21.100Z,11.51
2023-06-15T23:20:49.417Z,11.54
2023-06-15T23:23:16.107Z,11.55
2023-06-15T23:25:43.059Z,11.49
2023-06-15T23:28:09.872Z,11.44
2023-06-15T23:30:36.613Z,11.44
2023-06-15T23:33:03.419Z,11.43
2023-06-15T23:35:30.967Z,11.42
2023-06-15T23:37:57.630Z,11.35
2023-06-15T23:40:24.285Z,11.28
2023-06-15T23:42:50.974Z,11.24
2023-06-15T23:45:17.598Z,11.25
2023-06-15T23:47:44.296Z,11.25
2023-06-15T23:50:11.020Z,11.25
2023-06-15T23:52:38.161Z,11.23
2023-06-15T23:55:05.266Z,11.23
2023-06-15T23:57:31.909Z,11.22
2023-06-15T23:59:58.499Z,11.19
